Weaver, Minnesota
Current Conditions -  °F | °C
As of 2:53 AM on Friday 24 Oct 2014 (Local Time) from KONA Reporting Station
Overcast Overcast  
Wind Chill: 52°   Ceiling: 500
Heat Index: 52°   Visibility: 7mi
Dew Point: 50°   Wind: 3mph
Humidity: 94%   Direction: 140°SE
Pressure: 30.02"   Gusts: NA
Location:  44.1503°N, 91.9879°W
Report Text: KONA 240753Z AUTO 14003KT 7SM OVC005 11/10 A3002 RMK AO2
Loading
Personal Weather Stations






























Interactive Weather Map New forecast layout! Learn more

10-Day Weather Forecast

Advertisements
Track Severe Weather on mobile